Foster, West Virginia
Current Conditions -  °F | °C
As of 9:54 PM on Sunday 23 Nov 2014 (Local Time) from KCRW Reporting Station
Scattered Clouds Scattered Clouds  
Wind Chill: 61°   Ceiling: Unl
Heat Index: 61°   Visibility: 10mi
Dew Point: 52°   Wind: 16mph
Humidity: 72%   Direction: 140°SE
Pressure: 29.48"   Gusts: 32mph
Location:  38.1°N, 81.78°W
Report Text: KCRW 240254Z 14014G28KT 10SM FEW047 SCT150 16/11 A2948 RMK AO2 PK WND 15029/0243 RAE28 PRESFR SLP979 P0001 60007 T01610111 58058
Loading
Personal Weather Stations






























Interactive Weather Map New forecast layout! Learn more

10-Day Weather Forecast

Advertisements
Track Severe Weather on mobile